sensor_id;sensor_type;location;lat;lon;timestamp;temperature;humidity
62573;DHT22;48626;51.678;5.806;2023-03-13T00:03:52;10.50;99.90
62573;DHT22;48626;51.678;5.806;2023-03-13T00:06:20;10.60;99.90
62573;DHT22;48626;51.678;5.806;2023-03-13T00:08:47;10.60;99.90
62573;DHT22;48626;51.678;5.806;2023-03-13T00:11:14;10.60;99.90
62573;DHT22;48626;51.678;5.806;2023-03-13T00:13:41;10.60;99.90
62573;DHT22;48626;51.678;5.806;2023-03-13T00:16:09;10.60;99.90
62573;DHT22;48626;51.678;5.806;2023-03-13T00:18:36;10.60;99.90
62573;DHT22;48626;51.678;5.806;2023-03-13T00:21:10;10.60;99.90
62573;DHT22;48626;51.678;5.806;2023-03-13T00:23:37;10.60;99.90
62573;DHT22;48626;51.678;5.806;2023-03-13T00:26:06;10.60;99.90
62573;DHT22;48626;51.678;5.806;2023-03-13T00:28:33;10.50;99.90
62573;DHT22;48626;51.678;5.806;2023-03-13T00:31:13;10.50;99.90
62573;DHT22;48626;51.678;5.806;2023-03-13T00:33:41;10.50;99.90
62573;DHT22;48626;51.678;5.806;2023-03-13T00:36:13;10.40;99.90
62573;DHT22;48626;51.678;5.806;2023-03-13T00:38:39;10.40;99.90
62573;DHT22;48626;51.678;5.806;2023-03-13T00:41:11;10.40;99.90
62573;DHT22;48626;51.678;5.806;2023-03-13T00:43:37;10.40;99.90
62573;DHT22;48626;51.678;5.806;2023-03-13T00:46:03;10.40;99.90
62573;DHT22;48626;51.678;5.806;2023-03-13T00:48:30;10.40;99.90
62573;DHT22;48626;51.678;5.806;2023-03-13T00:50:56;10.30;99.90
62573;DHT22;48626;51.678;5.806;2023-03-13T00:53:21;10.40;99.90
62573;DHT22;48626;51.678;5.806;2023-03-13T00:55:52;10.30;99.90
62573;DHT22;48626;51.678;5.806;2023-03-13T00:58:18;10.30;99.90
62573;DHT22;48626;51.678;5.806;2023-03-13T01:00:44;10.40;99.90
62573;DHT22;48626;51.678;5.806;2023-03-13T01:03:09;10.40;99.90
62573;DHT22;48626;51.678;5.806;2023-03-13T01:05:35;10.30;99.90
62573;DHT22;48626;51.678;5.806;2023-03-13T01:08:01;10.30;99.90
62573;DHT22;48626;51.678;5.806;2023-03-13T01:10:26;10.30;99.90
62573;DHT22;48626;51.678;5.806;2023-03-13T01:12:52;10.30;99.90
62573;DHT22;48626;51.678;5.806;2023-03-13T01:15:17;10.30;99.90
62573;DHT22;48626;51.678;5.806;2023-03-13T01:17:44;10.40;99.90
62573;DHT22;48626;51.678;5.806;2023-03-13T01:20:10;10.40;99.90
62573;DHT22;48626;51.678;5.806;2023-03-13T01:22:36;10.40;99.90
62573;DHT22;48626;51.678;5.806;2023-03-13T01:25:02;10.40;99.90
62573;DHT22;48626;51.678;5.806;2023-03-13T01:27:28;10.40;99.90
62573;DHT22;48626;51.678;5.806;2023-03-13T01:29:54;10.30;99.90
62573;DHT22;48626;51.678;5.806;2023-03-13T01:32:20;10.40;99.90
62573;DHT22;48626;51.678;5.806;2023-03-13T01:34:46;10.40;99.90
62573;DHT22;48626;51.678;5.806;2023-03-13T01:37:11;10.40;99.90
62573;DHT22;48626;51.678;5.806;2023-03-13T01:39:37;10.40;99.90
62573;DHT22;48626;51.678;5.806;2023-03-13T01:42:03;10.40;99.90
62573;DHT22;48626;51.678;5.806;2023-03-13T01:44:29;10.40;99.90
62573;DHT22;48626;51.678;5.806;2023-03-13T01:47:12;10.40;99.90
62573;DHT22;48626;51.678;5.806;2023-03-13T01:49:38;10.40;99.90
62573;DHT22;48626;51.678;5.806;2023-03-13T01:52:12;10.40;99.90
62573;DHT22;48626;51.678;5.806;2023-03-13T02:00:03;10.40;99.90
62573;DHT22;48626;51.678;5.806;2023-03-13T02:02:33;10.40;99.90
62573;DHT22;48626;51.678;5.806;2023-03-13T02:05:00;10.40;99.90
62573;DHT22;48626;51.678;5.806;2023-03-13T02:07:33;10.40;99.90
62573;DHT22;48626;51.678;5.806;2023-03-13T02:10:00;10.50;99.90
62573;DHT22;48626;51.678;5.806;2023-03-13T02:12:32;10.50;99.90
62573;DHT22;48626;51.678;5.806;2023-03-13T02:15:33;10.50;99.90
62573;DHT22;48626;51.678;5.806;2023-03-13T02:17:53;10.60;99.90
62573;DHT22;48626;51.678;5.806;2023-03-13T02:20:20;10.60;99.90
62573;DHT22;48626;51.678;5.806;2023-03-13T02:25:25;10.70;99.90
62573;DHT22;48626;51.678;5.806;2023-03-13T02:27:56;10.70;99.90
62573;DHT22;48626;51.678;5.806;2023-03-13T02:30:23;10.70;99.90
62573;DHT22;48626;51.678;5.806;2023-03-13T02:32:49;10.80;99.90
62573;DHT22;48626;51.678;5.806;2023-03-13T02:35:17;10.80;99.90
62573;DHT22;48626;51.678;5.806;2023-03-13T02:37:45;10.90;99.90
62573;DHT22;48626;51.678;5.806;2023-03-13T02:40:15;10.90;99.90
62573;DHT22;48626;51.678;5.806;2023-03-13T02:42:43;10.90;99.90
62573;DHT22;48626;51.678;5.806;2023-03-13T02:45:13;11.00;99.90
62573;DHT22;48626;51.678;5.806;2023-03-13T02:47:39;11.00;99.90
62573;DHT22;48626;51.678;5.806;2023-03-13T02:50:05;11.00;99.90
62573;DHT22;48626;51.678;5.806;2023-03-13T02:52:34;11.00;99.90
62573;DHT22;48626;51.678;5.806;2023-03-13T02:55:11;11.10;99.90
62573;DHT22;48626;51.678;5.806;2023-03-13T02:57:38;11.10;99.90
62573;DHT22;48626;51.678;5.806;2023-03-13T03:00:06;11.10;99.90
62573;DHT22;48626;51.678;5.806;2023-03-13T03:02:36;11.20;99.90
62573;DHT22;48626;51.678;5.806;2023-03-13T03:05:03;11.20;99.90
62573;DHT22;48626;51.678;5.806;2023-03-13T03:07:29;11.30;99.90
62573;DHT22;48626;51.678;5.806;2023-03-13T03:09:54;11.30;99.90
62573;DHT22;48626;51.678;5.806;2023-03-13T03:12:20;11.30;99.90
62573;DHT22;48626;51.678;5.806;2023-03-13T03:14:46;11.40;99.90
62573;DHT22;48626;51.678;5.806;2023-03-13T03:17:11;11.40;99.90
62573;DHT22;48626;51.678;5.806;2023-03-13T03:19:37;11.40;99.90
62573;DHT22;48626;51.678;5.806;2023-03-13T03:22:03;11.40;99.90
62573;DHT22;48626;51.678;5.806;2023-03-13T03:24:28;11.50;99.90
62573;DHT22;48626;51.678;5.806;2023-03-13T03:26:54;11.50;99.90
62573;DHT22;48626;51.678;5.806;2023-03-13T03:29:20;11.50;99.90
62573;DHT22;48626;51.678;5.806;2023-03-13T03:31:45;11.50;99.90
62573;DHT22;48626;51.678;5.806;2023-03-13T03:34:11;11.50;99.90
62573;DHT22;48626;51.678;5.806;2023-03-13T03:36:36;11.60;99.90
62573;DHT22;48626;51.678;5.806;2023-03-13T03:39:02;11.60;99.90
62573;DHT22;48626;51.678;5.806;2023-03-13T03:41:30;11.60;99.90
62573;DHT22;48626;51.678;5.806;2023-03-13T03:43:56;11.60;99.90
62573;DHT22;48626;51.678;5.806;2023-03-13T03:46:22;11.60;99.90
62573;DHT22;48626;51.678;5.806;2023-03-13T03:48:47;11.70;99.90
62573;DHT22;48626;51.678;5.806;2023-03-13T03:51:13;11.70;99.90
62573;DHT22;48626;51.678;5.806;2023-03-13T03:53:39;11.70;99.90
62573;DHT22;48626;51.678;5.806;2023-03-13T03:56:04;11.70;99.90
62573;DHT22;48626;51.678;5.806;2023-03-13T03:58:30;11.80;99.90
62573;DHT22;48626;51.678;5.806;2023-03-13T04:00:57;11.80;99.90
62573;DHT22;48626;51.678;5.806;2023-03-13T04:03:23;11.80;99.90
62573;DHT22;48626;51.678;5.806;2023-03-13T04:05:49;11.90;99.90
62573;DHT22;48626;51.678;5.806;2023-03-13T04:08:15;11.90;99.90
62573;DHT22;48626;51.678;5.806;2023-03-13T04:10:41;11.90;99.90
62573;DHT22;48626;51.678;5.806;2023-03-13T04:13:07;11.90;99.90
62573;DHT22;48626;51.678;5.806;2023-03-13T04:15:32;11.90;99.90
62573;DHT22;48626;51.678;5.806;2023-03-13T04:17:58;11.90;99.90
62573;DHT22;48626;51.678;5.806;2023-03-13T04:20:25;11.90;99.90
62573;DHT22;48626;51.678;5.806;2023-03-13T04:22:53;12.00;99.90
62573;DHT22;48626;51.678;5.806;2023-03-13T04:25:19;12.00;99.90
62573;DHT22;48626;51.678;5.806;2023-03-13T04:27:44;12.10;99.90
62573;DHT22;48626;51.678;5.806;2023-03-13T04:30:10;12.10;99.90
62573;DHT22;48626;51.678;5.806;2023-03-13T04:32:36;12.10;99.90
62573;DHT22;48626;51.678;5.806;2023-03-13T04:35:02;12.10;99.90
62573;DHT22;48626;51.678;5.806;2023-03-13T04:37:28;12.10;99.90
62573;DHT22;48626;51.678;5.806;2023-03-13T04:39:53;12.10;99.90
62573;DHT22;48626;51.678;5.806;2023-03-13T04:42:19;12.20;99.90
62573;DHT22;48626;51.678;5.806;2023-03-13T04:44:44;12.20;99.90
62573;DHT22;48626;51.678;5.806;2023-03-13T04:47:10;12.20;99.90
62573;DHT22;48626;51.678;5.806;2023-03-13T04:49:36;12.20;99.90
62573;DHT22;48626;51.678;5.806;2023-03-13T04:52:01;12.20;99.90
62573;DHT22;48626;51.678;5.806;2023-03-13T04:54:27;12.30;99.90
62573;DHT22;48626;51.678;5.806;2023-03-13T04:56:53;12.20;99.90
62573;DHT22;48626;51.678;5.806;2023-03-13T04:59:18;12.30;99.90
62573;DHT22;48626;51.678;5.806;2023-03-13T05:01:44;12.30;99.90
62573;DHT22;48626;51.678;5.806;2023-03-13T05:04:10;12.30;99.90
62573;DHT22;48626;51.678;5.806;2023-03-13T05:06:36;12.40;99.90
62573;DHT22;48626;51.678;5.806;2023-03-13T05:09:02;12.40;99.90
62573;DHT22;48626;51.678;5.806;2023-03-13T05:11:29;12.40;99.90
62573;DHT22;48626;51.678;5.806;2023-03-13T05:13:55;12.40;99.90
62573;DHT22;48626;51.678;5.806;2023-03-13T05:16:20;12.50;99.90
62573;DHT22;48626;51.678;5.806;2023-03-13T05:18:46;12.50;99.90
62573;DHT22;48626;51.678;5.806;2023-03-13T05:21:11;12.50;99.90
62573;DHT22;48626;51.678;5.806;2023-03-13T05:23:37;12.50;99.90
62573;DHT22;48626;51.678;5.806;2023-03-13T05:26:03;12.60;99.90
62573;DHT22;48626;51.678;5.806;2023-03-13T05:28:29;12.60;99.90
62573;DHT22;48626;51.678;5.806;2023-03-13T05:30:54;12.60;99.90
62573;DHT22;48626;51.678;5.806;2023-03-13T05:33:20;12.60;99.90
62573;DHT22;48626;51.678;5.806;2023-03-13T05:35:46;12.60;99.90
62573;DHT22;48626;51.678;5.806;2023-03-13T05:38:12;12.70;99.90
62573;DHT22;48626;51.678;5.806;2023-03-13T05:40:37;12.70;99.90
62573;DHT22;48626;51.678;5.806;2023-03-13T05:43:03;12.70;99.90
62573;DHT22;48626;51.678;5.806;2023-03-13T05:45:29;12.70;99.90
62573;DHT22;48626;51.678;5.806;2023-03-13T05:47:55;12.70;99.90
62573;DHT22;48626;51.678;5.806;2023-03-13T05:50:20;12.70;99.90
62573;DHT22;48626;51.678;5.806;2023-03-13T05:52:46;12.70;99.90
62573;DHT22;48626;51.678;5.806;2023-03-13T05:55:12;12.70;99.90
62573;DHT22;48626;51.678;5.806;2023-03-13T05:57:38;12.80;99.90
62573;DHT22;48626;51.678;5.806;2023-03-13T06:00:04;12.80;99.90
62573;DHT22;48626;51.678;5.806;2023-03-13T06:02:30;12.90;99.90
62573;DHT22;48626;51.678;5.806;2023-03-13T06:04:55;12.90;99.90
62573;DHT22;48626;51.678;5.806;2023-03-13T06:07:21;12.90;99.90
62573;DHT22;48626;51.678;5.806;2023-03-13T06:09:47;12.90;99.90
62573;DHT22;48626;51.678;5.806;2023-03-13T06:12:12;12.90;99.90
62573;DHT22;48626;51.678;5.806;2023-03-13T06:14:38;13.00;99.90
62573;DHT22;48626;51.678;5.806;2023-03-13T06:17:04;13.00;99.90
62573;DHT22;48626;51.678;5.806;2023-03-13T06:19:30;13.00;99.90
62573;DHT22;48626;51.678;5.806;2023-03-13T06:21:56;13.00;99.90
62573;DHT22;48626;51.678;5.806;2023-03-13T06:24:22;13.00;99.90
62573;DHT22;48626;51.678;5.806;2023-03-13T06:26:48;13.10;99.90
62573;DHT22;48626;51.678;5.806;2023-03-13T06:29:15;13.10;99.90
62573;DHT22;48626;51.678;5.806;2023-03-13T06:31:41;13.10;99.90
62573;DHT22;48626;51.678;5.806;2023-03-13T06:34:09;13.20;99.90
62573;DHT22;48626;51.678;5.806;2023-03-13T06:36:35;13.10;99.90
62573;DHT22;48626;51.678;5.806;2023-03-13T06:39:00;13.20;99.90
62573;DHT22;48626;51.678;5.806;2023-03-13T06:41:26;13.20;99.90
62573;DHT22;48626;51.678;5.806;2023-03-13T06:43:52;13.20;99.90
62573;DHT22;48626;51.678;5.806;2023-03-13T06:46:21;13.20;99.90
62573;DHT22;48626;51.678;5.806;2023-03-13T06:48:47;13.20;99.90
62573;DHT22;48626;51.678;5.806;2023-03-13T06:51:14;13.20;99.90
62573;DHT22;48626;51.678;5.806;2023-03-13T06:53:41;13.20;99.90
62573;DHT22;48626;51.678;5.806;2023-03-13T06:56:08;13.20;99.90
62573;DHT22;48626;51.678;5.806;2023-03-13T06:58:34;13.20;99.90
62573;DHT22;48626;51.678;5.806;2023-03-13T07:01:05;13.30;99.90
62573;DHT22;48626;51.678;5.806;2023-03-13T07:03:31;13.30;99.90
62573;DHT22;48626;51.678;5.806;2023-03-13T07:05:58;13.30;99.90
62573;DHT22;48626;51.678;5.806;2023-03-13T07:08:24;13.30;99.90
62573;DHT22;48626;51.678;5.806;2023-03-13T07:10:50;13.30;99.90
62573;DHT22;48626;51.678;5.806;2023-03-13T07:13:17;13.40;99.90
62573;DHT22;48626;51.678;5.806;2023-03-13T07:15:46;13.40;99.90
62573;DHT22;48626;51.678;5.806;2023-03-13T07:18:12;13.40;99.90
62573;DHT22;48626;51.678;5.806;2023-03-13T07:20:38;13.40;99.90
62573;DHT22;48626;51.678;5.806;2023-03-13T07:23:04;13.50;99.90
62573;DHT22;48626;51.678;5.806;2023-03-13T07:25:29;13.50;99.90
62573;DHT22;48626;51.678;5.806;2023-03-13T07:27:55;13.50;99.90
62573;DHT22;48626;51.678;5.806;2023-03-13T07:30:21;13.50;99.90
62573;DHT22;48626;51.678;5.806;2023-03-13T07:32:47;13.60;99.90
62573;DHT22;48626;51.678;5.806;2023-03-13T07:35:13;13.60;99.90
62573;DHT22;48626;51.678;5.806;2023-03-13T07:37:39;13.60;99.90
62573;DHT22;48626;51.678;5.806;2023-03-13T07:40:05;13.60;99.90
62573;DHT22;48626;51.678;5.806;2023-03-13T07:42:31;13.70;99.90
62573;DHT22;48626;51.678;5.806;2023-03-13T07:44:56;13.70;99.90
62573;DHT22;48626;51.678;5.806;2023-03-13T07:47:22;13.70;99.90
62573;DHT22;48626;51.678;5.806;2023-03-13T07:49:48;13.80;99.90
62573;DHT22;48626;51.678;5.806;2023-03-13T07:52:13;13.80;99.90
62573;DHT22;48626;51.678;5.806;2023-03-13T07:54:39;13.90;99.90
62573;DHT22;48626;51.678;5.806;2023-03-13T07:57:05;14.00;99.90
62573;DHT22;48626;51.678;5.806;2023-03-13T07:59:30;14.00;99.90
62573;DHT22;48626;51.678;5.806;2023-03-13T08:01:56;14.00;99.90
62573;DHT22;48626;51.678;5.806;2023-03-13T08:04:22;14.00;99.90
62573;DHT22;48626;51.678;5.806;2023-03-13T08:06:47;14.00;99.90
62573;DHT22;48626;51.678;5.806;2023-03-13T08:09:13;14.00;99.90
62573;DHT22;48626;51.678;5.806;2023-03-13T08:11:39;14.00;99.90
62573;DHT22;48626;51.678;5.806;2023-03-13T08:14:05;13.90;99.90
62573;DHT22;48626;51.678;5.806;2023-03-13T08:16:32;13.90;99.90
62573;DHT22;48626;51.678;5.806;2023-03-13T08:18:59;14.00;99.90
62573;DHT22;48626;51.678;5.806;2023-03-13T08:21:28;14.10;99.90
62573;DHT22;48626;51.678;5.806;2023-03-13T08:23:58;14.20;99.90
62573;DHT22;48626;51.678;5.806;2023-03-13T08:26:28;14.30;99.90
62573;DHT22;48626;51.678;5.806;2023-03-13T08:28:56;14.40;99.90
62573;DHT22;48626;51.678;5.806;2023-03-13T08:31:25;14.50;99.90
62573;DHT22;48626;51.678;5.806;2023-03-13T08:33:51;14.60;99.90
62573;DHT22;48626;51.678;5.806;2023-03-13T08:36:19;14.60;99.90
62573;DHT22;48626;51.678;5.806;2023-03-13T08:38:47;14.60;99.90
62573;DHT22;48626;51.678;5.806;2023-03-13T08:41:21;14.70;99.90
62573;DHT22;48626;51.678;5.806;2023-03-13T08:43:47;14.80;99.90
62573;DHT22;48626;51.678;5.806;2023-03-13T08:46:14;14.80;99.90
62573;DHT22;48626;51.678;5.806;2023-03-13T08:48:40;14.80;99.90
62573;DHT22;48626;51.678;5.806;2023-03-13T08:51:11;14.60;99.90
62573;DHT22;48626;51.678;5.806;2023-03-13T08:53:38;14.50;99.90
62573;DHT22;48626;51.678;5.806;2023-03-13T08:56:08;14.30;99.90
62573;DHT22;48626;51.678;5.806;2023-03-13T08:58:34;14.20;99.90
62573;DHT22;48626;51.678;5.806;2023-03-13T09:01:11;14.10;99.90
62573;DHT22;48626;51.678;5.806;2023-03-13T09:03:38;14.10;99.90
62573;DHT22;48626;51.678;5.806;2023-03-13T09:06:04;14.10;99.90
62573;DHT22;48626;51.678;5.806;2023-03-13T09:08:31;14.00;99.90
62573;DHT22;48626;51.678;5.806;2023-03-13T09:10:58;13.80;99.90
62573;DHT22;48626;51.678;5.806;2023-03-13T09:13:25;13.80;99.90
62573;DHT22;48626;51.678;5.806;2023-03-13T09:16:02;13.80;99.90
62573;DHT22;48626;51.678;5.806;2023-03-13T09:18:28;13.90;99.90
62573;DHT22;48626;51.678;5.806;2023-03-13T09:20:54;14.00;99.90
62573;DHT22;48626;51.678;5.806;2023-03-13T09:23:21;14.30;99.90
62573;DHT22;48626;51.678;5.806;2023-03-13T09:25:48;14.50;99.90
62573;DHT22;48626;51.678;5.806;2023-03-13T09:28:14;14.70;99.90
62573;DHT22;48626;51.678;5.806;2023-03-13T09:30:40;14.80;99.90
62573;DHT22;48626;51.678;5.806;2023-03-13T09:33:06;15.00;99.90
62573;DHT22;48626;51.678;5.806;2023-03-13T09:35:31;15.10;99.90
62573;DHT22;48626;51.678;5.806;2023-03-13T09:37:57;15.10;99.90
62573;DHT22;48626;51.678;5.806;2023-03-13T09:40:25;15.30;99.90
62573;DHT22;48626;51.678;5.806;2023-03-13T09:42:57;15.40;99.90
62573;DHT22;48626;51.678;5.806;2023-03-13T09:45:39;15.60;99.90
62573;DHT22;48626;51.678;5.806;2023-03-13T09:48:32;15.80;99.90
62573;DHT22;48626;51.678;5.806;2023-03-13T09:51:10;15.90;99.90
62573;DHT22;48626;51.678;5.806;2023-03-13T09:53:41;16.10;99.90
62573;DHT22;48626;51.678;5.806;2023-03-13T09:56:15;16.20;99.90
62573;DHT22;48626;51.678;5.806;2023-03-13T09:58:49;16.50;99.90
62573;DHT22;48626;51.678;5.806;2023-03-13T10:01:20;16.70;99.90
62573;DHT22;48626;51.678;5.806;2023-03-13T10:04:18;17.00;99.90
62573;DHT22;48626;51.678;5.806;2023-03-13T10:06:46;17.40;99.90
62573;DHT22;48626;51.678;5.806;2023-03-13T10:09:17;17.40;99.90
62573;DHT22;48626;51.678;5.806;2023-03-13T10:11:57;17.20;99.90
62573;DHT22;48626;51.678;5.806;2023-03-13T10:14:42;17.00;99.90
62573;DHT22;48626;51.678;5.806;2023-03-13T10:19:41;16.70;99.90
62573;DHT22;48626;51.678;5.806;2023-03-13T10:22:15;16.70;99.90
62573;DHT22;48626;51.678;5.806;2023-03-13T10:25:18;16.70;99.90
62573;DHT22;48626;51.678;5.806;2023-03-13T10:27:49;17.20;99.90
62573;DHT22;48626;51.678;5.806;2023-03-13T10:30:27;17.80;99.90
62573;DHT22;48626;51.678;5.806;2023-03-13T10:32:58;17.90;99.90
62573;DHT22;48626;51.678;5.806;2023-03-13T10:35:31;17.90;99.90
62573;DHT22;48626;51.678;5.806;2023-03-13T10:38:18;18.20;99.90
62573;DHT22;48626;51.678;5.806;2023-03-13T10:41:24;18.20;99.90
62573;DHT22;48626;51.678;5.806;2023-03-13T10:44:13;18.00;99.90
62573;DHT22;48626;51.678;5.806;2023-03-13T10:46:42;17.80;99.90
62573;DHT22;48626;51.678;5.806;2023-03-13T10:49:21;18.00;99.90
62573;DHT22;48626;51.678;5.806;2023-03-13T10:51:51;18.10;99.90
62573;DHT22;48626;51.678;5.806;2023-03-13T10:54:24;17.90;99.90
62573;DHT22;48626;51.678;5.806;2023-03-13T10:56:51;18.00;99.90
62573;DHT22;48626;51.678;5.806;2023-03-13T10:59:31;17.70;99.90
62573;DHT22;48626;51.678;5.806;2023-03-13T11:01:59;17.70;99.90
62573;DHT22;48626;51.678;5.806;2023-03-13T11:04:29;17.70;99.90
62573;DHT22;48626;51.678;5.806;2023-03-13T11:07:03;17.90;99.90
62573;DHT22;48626;51.678;5.806;2023-03-13T11:09:29;17.80;99.90
62573;DHT22;48626;51.678;5.806;2023-03-13T11:12:02;17.90;99.90
62573;DHT22;48626;51.678;5.806;2023-03-13T11:14:28;18.20;99.90
62573;DHT22;48626;51.678;5.806;2023-03-13T11:16:59;18.30;99.90
62573;DHT22;48626;51.678;5.806;2023-03-13T11:19:40;18.80;99.90
62573;DHT22;48626;51.678;5.806;2023-03-13T11:22:15;19.10;99.90
62573;DHT22;48626;51.678;5.806;2023-03-13T11:27:36;18.90;99.90
62573;DHT22;48626;51.678;5.806;2023-03-13T11:30:14;18.60;99.90
62573;DHT22;48626;51.678;5.806;2023-03-13T11:32:54;18.40;99.90
62573;DHT22;48626;51.678;5.806;2023-03-13T11:35:36;18.60;99.90
62573;DHT22;48626;51.678;5.806;2023-03-13T11:38:16;18.50;99.90
62573;DHT22;48626;51.678;5.806;2023-03-13T11:51:47;21.10;99.90
62573;DHT22;48626;51.678;5.806;2023-03-13T11:57:04;21.10;99.90
62573;DHT22;48626;51.678;5.806;2023-03-13T12:02:26;20.10;99.90
62573;DHT22;48626;51.678;5.806;2023-03-13T12:04:57;19.80;99.90
62573;DHT22;48626;51.678;5.806;2023-03-13T12:10:12;20.80;99.90
62573;DHT22;48626;51.678;5.806;2023-03-13T12:17:40;20.90;99.90
62573;DHT22;48626;51.678;5.806;2023-03-13T12:20:17;20.30;99.90
62573;DHT22;48626;51.678;5.806;2023-03-13T12:25:50;20.80;99.90
62573;DHT22;48626;51.678;5.806;2023-03-13T12:28:28;20.80;99.90
62573;DHT22;48626;51.678;5.806;2023-03-13T12:34:13;21.30;99.90
62573;DHT22;48626;51.678;5.806;2023-03-13T12:39:28;21.20;99.90
62573;DHT22;48626;51.678;5.806;2023-03-13T12:45:00;20.20;99.90
62573;DHT22;48626;51.678;5.806;2023-03-13T12:59:21;24.00;99.90
62573;DHT22;48626;51.678;5.806;2023-03-13T13:01:51;24.30;99.90
62573;DHT22;48626;51.678;5.806;2023-03-13T13:04:22;24.60;99.90
62573;DHT22;48626;51.678;5.806;2023-03-13T13:09:24;25.20;99.90
62573;DHT22;48626;51.678;5.806;2023-03-13T13:11:52;25.60;99.90
62573;DHT22;48626;51.678;5.806;2023-03-13T13:24:56;25.10;99.90
62573;DHT22;48626;51.678;5.806;2023-03-13T13:27:45;25.40;99.90
62573;DHT22;48626;51.678;5.806;2023-03-13T13:37:38;25.10;99.90
62573;DHT22;48626;51.678;5.806;2023-03-13T13:40:27;24.90;99.90
62573;DHT22;48626;51.678;5.806;2023-03-13T13:42:58;25.30;99.90
62573;DHT22;48626;51.678;5.806;2023-03-13T13:45:29;25.50;99.90
62573;DHT22;48626;51.678;5.806;2023-03-13T13:56:33;23.40;99.90
62573;DHT22;48626;51.678;5.806;2023-03-13T14:01:27;22.20;99.90
62573;DHT22;48626;51.678;5.806;2023-03-13T14:04:10;21.70;99.90
62573;DHT22;48626;51.678;5.806;2023-03-13T14:06:38;21.50;99.90
62573;DHT22;48626;51.678;5.806;2023-03-13T14:09:32;21.30;99.90
62573;DHT22;48626;51.678;5.806;2023-03-13T14:11:59;21.30;99.90
62573;DHT22;48626;51.678;5.806;2023-03-13T14:14:24;20.90;99.90
62573;DHT22;48626;51.678;5.806;2023-03-13T14:16:55;20.60;99.90
62573;DHT22;48626;51.678;5.806;2023-03-13T14:19:43;20.50;99.90
62573;DHT22;48626;51.678;5.806;2023-03-13T14:22:10;20.40;99.90
62573;DHT22;48626;51.678;5.806;2023-03-13T14:24:39;20.20;99.90
62573;DHT22;48626;51.678;5.806;2023-03-13T14:27:16;19.90;99.90
62573;DHT22;48626;51.678;5.806;2023-03-13T14:29:59;19.80;99.90
62573;DHT22;48626;51.678;5.806;2023-03-13T14:32:25;19.80;99.90
62573;DHT22;48626;51.678;5.806;2023-03-13T14:34:51;19.70;99.90
62573;DHT22;48626;51.678;5.806;2023-03-13T14:38:00;19.50;99.90
62573;DHT22;48626;51.678;5.806;2023-03-13T14:40:27;19.50;99.90
62573;DHT22;48626;51.678;5.806;2023-03-13T14:42:58;19.30;99.90
62573;DHT22;48626;51.678;5.806;2023-03-13T14:45:28;19.20;99.90
62573;DHT22;48626;51.678;5.806;2023-03-13T14:48:01;19.20;99.90
62573;DHT22;48626;51.678;5.806;2023-03-13T14:50:27;19.20;99.90
62573;DHT22;48626;51.678;5.806;2023-03-13T14:52:56;19.20;99.90
62573;DHT22;48626;51.678;5.806;2023-03-13T14:55:27;19.20;99.90
62573;DHT22;48626;51.678;5.806;2023-03-13T15:02:50;18.90;99.90
62573;DHT22;48626;51.678;5.806;2023-03-13T15:05:30;18.80;99.90
62573;DHT22;48626;51.678;5.806;2023-03-13T15:07:57;18.80;99.90
62573;DHT22;48626;51.678;5.806;2023-03-13T15:10:30;18.70;99.90
62573;DHT22;48626;51.678;5.806;2023-03-13T15:12:56;18.70;99.90
62573;DHT22;48626;51.678;5.806;2023-03-13T15:15:22;18.60;99.90
62573;DHT22;48626;51.678;5.806;2023-03-13T15:17:48;18.60;99.90
62573;DHT22;48626;51.678;5.806;2023-03-13T15:20:14;18.50;99.90
62573;DHT22;48626;51.678;5.806;2023-03-13T15:22:43;18.50;99.90
62573;DHT22;48626;51.678;5.806;2023-03-13T15:25:20;18.50;99.90
62573;DHT22;48626;51.678;5.806;2023-03-13T15:27:47;18.40;99.90
62573;DHT22;48626;51.678;5.806;2023-03-13T15:30:18;18.40;99.90
62573;DHT22;48626;51.678;5.806;2023-03-13T15:32:44;18.30;99.90
62573;DHT22;48626;51.678;5.806;2023-03-13T15:35:31;18.30;99.90
62573;DHT22;48626;51.678;5.806;2023-03-13T15:37:59;18.20;99.90
62573;DHT22;48626;51.678;5.806;2023-03-13T15:40:26;18.10;99.90
62573;DHT22;48626;51.678;5.806;2023-03-13T15:42:53;18.00;99.90
62573;DHT22;48626;51.678;5.806;2023-03-13T15:45:20;18.00;99.90
62573;DHT22;48626;51.678;5.806;2023-03-13T15:47:46;17.90;99.90
62573;DHT22;48626;51.678;5.806;2023-03-13T15:50:16;17.80;99.90
62573;DHT22;48626;51.678;5.806;2023-03-13T15:52:42;17.80;99.90
62573;DHT22;48626;51.678;5.806;2023-03-13T15:55:10;17.80;99.90
62573;DHT22;48626;51.678;5.806;2023-03-13T15:57:43;17.80;99.90
62573;DHT22;48626;51.678;5.806;2023-03-13T16:00:22;17.70;99.90
62573;DHT22;48626;51.678;5.806;2023-03-13T16:02:48;17.70;99.90
62573;DHT22;48626;51.678;5.806;2023-03-13T16:05:14;17.60;99.90
62573;DHT22;48626;51.678;5.806;2023-03-13T16:07:40;17.60;99.90
62573;DHT22;48626;51.678;5.806;2023-03-13T16:10:16;17.50;99.90
62573;DHT22;48626;51.678;5.806;2023-03-13T16:12:41;17.50;99.90
62573;DHT22;48626;51.678;5.806;2023-03-13T16:15:07;17.40;99.90
62573;DHT22;48626;51.678;5.806;2023-03-13T16:17:34;17.30;99.90
62573;DHT22;48626;51.678;5.806;2023-03-13T16:19:59;17.40;99.90
62573;DHT22;48626;51.678;5.806;2023-03-13T16:22:25;17.30;99.90
62573;DHT22;48626;51.678;5.806;2023-03-13T16:24:50;17.30;99.90
62573;DHT22;48626;51.678;5.806;2023-03-13T16:27:18;17.20;99.90
62573;DHT22;48626;51.678;5.806;2023-03-13T16:29:45;17.20;99.90
62573;DHT22;48626;51.678;5.806;2023-03-13T16:32:15;17.20;99.90
62573;DHT22;48626;51.678;5.806;2023-03-13T16:34:41;17.10;99.90
62573;DHT22;48626;51.678;5.806;2023-03-13T16:37:15;17.10;99.90
62573;DHT22;48626;51.678;5.806;2023-03-13T16:39:42;17.10;99.90
62573;DHT22;48626;51.678;5.806;2023-03-13T16:42:08;17.00;99.90
62573;DHT22;48626;51.678;5.806;2023-03-13T16:44:34;17.00;99.90
62573;DHT22;48626;51.678;5.806;2023-03-13T16:47:00;16.90;99.90
62573;DHT22;48626;51.678;5.806;2023-03-13T16:49:25;16.80;99.90
62573;DHT22;48626;51.678;5.806;2023-03-13T16:51:51;16.70;99.90
62573;DHT22;48626;51.678;5.806;2023-03-13T16:54:17;16.70;99.90
62573;DHT22;48626;51.678;5.806;2023-03-13T16:56:43;16.70;99.90
62573;DHT22;48626;51.678;5.806;2023-03-13T16:59:14;16.60;99.90
62573;DHT22;48626;51.678;5.806;2023-03-13T17:01:40;16.50;99.90
62573;DHT22;48626;51.678;5.806;2023-03-13T17:04:06;16.50;99.90
62573;DHT22;48626;51.678;5.806;2023-03-13T17:06:36;16.50;99.90
62573;DHT22;48626;51.678;5.806;2023-03-13T17:09:04;16.40;99.90
62573;DHT22;48626;51.678;5.806;2023-03-13T17:11:31;16.40;99.90
62573;DHT22;48626;51.678;5.806;2023-03-13T17:13:57;16.40;99.90
62573;DHT22;48626;51.678;5.806;2023-03-13T17:16:40;16.30;99.90
62573;DHT22;48626;51.678;5.806;2023-03-13T17:19:08;16.30;99.90
62573;DHT22;48626;51.678;5.806;2023-03-13T17:21:36;16.30;99.90